CST,Max TemperatureF,Mean TemperatureF,Min TemperatureF,Max Dew PointF,MeanDew PointF,Min DewpointF,Max Humidity, Mean Humidity, Min Humidity, Max Sea Level PressureIn, Mean Sea Level PressureIn, Min Sea Level PressureIn, Max VisibilityMiles, Mean VisibilityMiles, Min VisibilityMiles, Max Wind SpeedMPH, Mean Wind SpeedMPH, Max Gust SpeedMPH,PrecipitationIn, CloudCover, Events, WindDirDegrees
2013-11-1,50,42,33,38,36,29,92,74,56,29.87,29.63,29.44,10,8,4,22,13,28,0.00,6,,301
2013-11-2,48,39,29,33,28,23,89,67,45,30.16,30.04,29.88,10,10,10,17,8,23,0.00,2,,300
2013-11-3,53,41,29,33,29,25,78,61,44,30.18,30.09,29.97,10,10,10,33,19,44,0.00,0,,157
2013-11-4,47,40,32,43,37,31,92,75,58,30.19,30.01,29.92,10,5,1,28,13,37,0.00,5,Rain-Thunderstorm,192
2013-11-5,44,37,29,40,35,28,93,89,85,30.27,30.10,29.90,7,4,2,26,10,31,0.82,5,Rain-Snow,15
2013-11-6,41,35,29,32,28,23,96,75,54,30.22,30.06,29.89,10,8,2,26,15,32,0.05,5,Rain-Snow,324
2013-11-7,43,36,28,31,27,24,92,78,64,30.28,30.24,30.16,10,8,5,23,11,29,0.00,5,,273
2013-11-8,46,35,24,39,27,21,88,69,49,30.25,30.00,29.71,10,9,7,32,15,43,T,4,Rain,177
2013-11-9,46,39,31,39,32,25,86,73,59,30.24,29.96,29.70,10,10,10,31,19,40,0.00,6,,283
2013-11-10,43,38,32,30,28,26,78,68,57,30.39,30.30,30.17,10,10,10,18,11,22,0.00,6,,258
2013-11-11,41,28,14,30,18,7,92,75,57,30.74,30.57,30.38,10,7,1,26,15,32,0.04,4,Snow,342
2013-11-12,21,14,7,11,8,3,84,72,49,30.83,30.74,30.55,10,10,10,13,8,22,0.00,0,,265
2013-11-13,45,32,19,30,21,9,67,62,57,30.52,30.19,29.97,10,10,10,29,19,37,0.00,0,,202
2013-11-14,42,37,32,37,29,23,89,77,64,29.96,29.89,29.85,10,10,7,16,10,18,0.01,2,Rain,211
2013-11-15,53,41,28,40,33,26,92,76,59,29.91,29.85,29.74,10,8,4,16,9,20,0.00,0,,189
2013-11-16,56,48,39,54,44,33,96,84,71,29.71,29.44,29.27,10,5,1,24,16,31,0.15,6,Rain,174
2013-11-17,42,37,32,38,34,26,92,81,70,29.86,29.51,29.36,10,9,2,35,16,45,0.13,6,Rain,275
2013-11-18,35,29,23,25,22,19,88,76,64,30.30,30.13,29.86,10,10,9,32,16,40,0.00,4,,299
2013-11-19,43,32,20,28,23,17,92,73,53,30.32,30.18,30.04,10,9,7,29,16,43,0.00,2,,157
2013-11-20,39,37,34,34,30,23,92,71,50,30.07,30.00,29.94,10,5,0,24,16,32,0.04,8,Fog-Rain-Snow,158
2013-11-21,37,31,24,36,28,21,100,91,81,30.49,30.27,30.05,10,3,0,23,12,30,0.07,8,Fog-Rain-Snow,324
2013-11-22,27,20,13,20,14,8,92,75,57,30.63,30.54,30.44,10,8,2,25,13,30,0.02,3,Snow,309
2013-11-23,17,10,3,9,1,-2,79,69,58,30.84,30.76,30.51,10,10,10,24,14,30,0.00,1,,321
2013-11-24,24,13,2,11,5,-3,83,68,52,30.76,30.46,30.13,10,10,10,35,18,44,0.00,1,,197
2013-11-25,40,32,23,27,21,11,81,68,54,30.09,30.05,29.97,10,10,10,31,18,39,T,6,,264
2013-11-26,32,23,13,23,8,1,69,55,41,30.38,30.23,30.04,10,10,10,31,19,38,T,4,,326
2013-11-27,24,15,6,9,6,2,80,63,46,30.41,30.29,30.13,10,10,10,18,9,22,0.00,3,,217
2013-11-28,30,23,16,13,11,9,74,61,47,30.55,30.33,30.11,10,10,10,20,9,23,0.00,4,,315
2013-11-29,32,21,9,19,14,4,84,67,49,30.57,30.44,30.21,10,9,7,25,12,32,0.00,0,,169
2013-11-30,44,35,25,27,24,19,81,67,53,30.19,30.11,30.06,9,8,6,21,10,30,0.00,2,,259